createdAt,value
2023-11-26T00:02:15.112Z,10.70
2023-11-26T00:04:46.110Z,10.80
2023-11-26T00:07:17.264Z,11.00
2023-11-26T00:09:48.390Z,11.00
2023-11-26T00:12:19.337Z,11.20
2023-11-26T00:14:50.363Z,11.60
2023-11-26T00:17:25.474Z,11.50
2023-11-26T00:19:56.541Z,11.30
2023-11-26T00:22:29.521Z,11.00
2023-11-26T00:25:01.202Z,10.80
2023-11-26T00:27:32.182Z,10.40
2023-11-26T00:30:04.482Z,11.10
2023-11-26T00:32:36.180Z,11.50
2023-11-26T00:35:07.677Z,12.40
2023-11-26T00:37:38.599Z,12.70
2023-11-26T00:40:10.702Z,12.50
2023-11-26T00:42:41.666Z,12.10
2023-11-26T00:45:12.717Z,11.40
2023-11-26T00:47:43.780Z,11.70
2023-11-26T00:50:15.601Z,11.80
2023-11-26T00:52:47.165Z,11.50
2023-11-26T00:55:18.351Z,11.60
2023-11-26T00:57:50.908Z,11.40
2023-11-26T01:00:22.019Z,12.00
2023-11-26T01:02:53.007Z,11.80
2023-11-26T01:05:24.086Z,11.90
2023-11-26T01:07:55.031Z,12.00
2023-11-26T01:10:26.356Z,11.80
2023-11-26T01:12:57.355Z,12.30
2023-11-26T01:15:28.489Z,12.50
2023-11-26T01:17:59.473Z,12.50
2023-11-26T01:20:30.695Z,12.70
2023-11-26T01:23:01.708Z,12.20
2023-11-26T01:25:32.827Z,12.40
2023-11-26T01:28:03.867Z,12.30
2023-11-26T01:30:34.816Z,12.40
2023-11-26T01:33:06.128Z,12.30
2023-11-26T01:35:37.242Z,12.10
2023-11-26T01:38:08.399Z,11.90
2023-11-26T01:40:40.028Z,12.00
2023-11-26T01:43:11.027Z,12.20
2023-11-26T01:45:42.051Z,11.70
2023-11-26T01:48:17.120Z,11.50
2023-11-26T01:50:48.091Z,11.60
2023-11-26T01:53:19.120Z,11.80
2023-11-26T01:55:50.567Z,11.10
2023-11-26T01:58:21.629Z,11.20
2023-11-26T02:00:53.658Z,11.50
2023-11-26T02:03:24.748Z,11.80
2023-11-26T02:05:55.789Z,11.50
2023-11-26T02:08:28.178Z,11.70
2023-11-26T02:11:00.582Z,11.50
2023-11-26T02:13:31.963Z,11.60
2023-11-26T02:16:02.924Z,11.70
2023-11-26T02:18:33.843Z,11.90
2023-11-26T02:21:05.210Z,12.00
2023-11-26T02:23:40.317Z,11.80
2023-11-26T02:26:11.512Z,11.50
2023-11-26T02:28:43.774Z,11.60
2023-11-26T02:31:14.902Z,11.60
2023-11-26T02:33:54.771Z,11.60
2023-11-26T02:36:28.064Z,11.50
2023-11-26T02:38:59.381Z,11.70
2023-11-26T02:41:30.416Z,11.60
2023-11-26T02:44:01.327Z,11.50
2023-11-26T02:46:32.610Z,11.40
2023-11-26T02:49:04.826Z,11.60
2023-11-26T02:51:36.251Z,11.70
2023-11-26T02:54:07.187Z,11.60
2023-11-26T02:56:38.277Z,11.60
2023-11-26T02:59:10.808Z,12.10
2023-11-26T03:01:41.915Z,11.90
2023-11-26T03:04:14.904Z,12.20
2023-11-26T03:06:48.089Z,12.50
2023-11-26T03:09:34.555Z,11.90
2023-11-26T03:12:24.326Z,11.80
2023-11-26T03:14:55.347Z,11.80
2023-11-26T03:17:27.036Z,11.70
2023-11-26T03:19:58.129Z,11.80
2023-11-26T03:22:29.051Z,11.80
2023-11-26T03:24:59.999Z,11.90
2023-11-26T03:27:30.888Z,11.70
2023-11-26T03:30:02.247Z,11.80
2023-11-26T03:32:33.501Z,11.60
2023-11-26T03:35:05.162Z,11.60
2023-11-26T03:37:36.131Z,12.00
2023-11-26T03:40:08.900Z,11.70
2023-11-26T03:42:40.408Z,11.70
2023-11-26T03:45:12.819Z,11.80
2023-11-26T03:47:43.827Z,11.80
2023-11-26T03:50:15.092Z,11.90
2023-11-26T03:52:46.551Z,11.80
2023-11-26T03:55:17.614Z,11.80
2023-11-26T03:57:48.496Z,11.70
2023-11-26T04:00:19.806Z,11.80
2023-11-26T04:02:51.195Z,11.60
2023-11-26T04:05:22.292Z,11.80
2023-11-26T04:07:53.227Z,11.70
2023-11-26T04:10:28.120Z,11.50
2023-11-26T04:13:06.472Z,11.40
2023-11-26T04:15:45.010Z,11.60
2023-11-26T04:18:16.835Z,11.20
2023-11-26T04:20:48.636Z,11.50
2023-11-26T04:23:19.646Z,11.30
2023-11-26T04:25:50.737Z,11.50
2023-11-26T04:28:21.963Z,11.70
2023-11-26T04:30:53.174Z,11.90
2023-11-26T04:33:24.997Z,12.00
2023-11-26T04:35:56.050Z,12.00
2023-11-26T04:38:28.646Z,11.70
2023-11-26T04:40:59.724Z,11.80
2023-11-26T04:43:30.668Z,12.10
2023-11-26T04:46:01.599Z,12.20
2023-11-26T04:48:32.514Z,12.10
2023-11-26T04:51:03.880Z,12.50
2023-11-26T04:53:34.855Z,12.70
2023-11-26T04:56:06.411Z,12.60
2023-11-26T04:58:38.130Z,12.20
2023-11-26T05:01:09.588Z,12.00
2023-11-26T05:03:41.025Z,12.20
2023-11-26T05:06:14.498Z,12.00
2023-11-26T05:08:45.513Z,12.30
2023-11-26T05:11:17.935Z,12.20
2023-11-26T05:13:49.934Z,12.40
2023-11-26T05:16:20.829Z,12.50
2023-11-26T05:18:51.900Z,12.40
2023-11-26T05:21:23.119Z,12.30
2023-11-26T05:23:54.108Z,12.10
2023-11-26T05:26:25.189Z,12.30
2023-11-26T05:28:56.747Z,12.50
2023-11-26T05:31:27.890Z,12.30
2023-11-26T05:33:59.135Z,12.20
2023-11-26T05:36:30.067Z,12.20
2023-11-26T05:39:01.005Z,12.40
2023-11-26T05:41:34.000Z,12.60
2023-11-26T05:44:05.861Z,12.40
2023-11-26T05:46:36.997Z,12.20
2023-11-26T05:49:07.999Z,12.30
2023-11-26T05:51:39.112Z,12.40
2023-11-26T05:54:10.153Z,12.70
2023-11-26T05:56:46.571Z,12.70
2023-11-26T05:59:18.148Z,12.40
2023-11-26T06:01:49.057Z,12.00
2023-11-26T06:04:19.965Z,12.00
2023-11-26T06:06:51.551Z,11.90
2023-11-26T06:09:23.347Z,12.10
2023-11-26T06:11:54.333Z,12.20
2023-11-26T06:14:25.396Z,12.30
2023-11-26T06:16:56.408Z,12.30
2023-11-26T06:19:27.293Z,12.30
2023-11-26T06:21:58.194Z,12.50
2023-11-26T06:24:29.305Z,12.50
2023-11-26T06:27:01.141Z,12.20
2023-11-26T06:29:32.163Z,11.90
2023-11-26T06:32:03.286Z,12.20
2023-11-26T06:34:34.305Z,12.30
2023-11-26T06:37:06.446Z,12.20
2023-11-26T06:39:37.685Z,11.80
2023-11-26T06:42:08.756Z,12.00
2023-11-26T06:44:39.710Z,12.30
2023-11-26T06:47:10.699Z,12.50
2023-11-26T06:49:41.652Z,12.50
2023-11-26T06:52:12.580Z,12.60
2023-11-26T06:54:43.846Z,12.40
2023-11-26T06:57:14.867Z,12.70
2023-11-26T06:59:45.780Z,12.80
2023-11-26T07:02:16.845Z,12.60
2023-11-26T07:04:47.951Z,12.10
2023-11-26T07:07:22.369Z,12.40
2023-11-26T07:09:53.778Z,12.50
2023-11-26T07:12:24.863Z,12.70
2023-11-26T07:14:56.868Z,12.70
2023-11-26T07:17:29.205Z,12.50
2023-11-26T07:20:00.208Z,12.80
2023-11-26T07:22:31.332Z,12.70
2023-11-26T07:25:02.767Z,12.50
2023-11-26T07:27:33.897Z,12.20
2023-11-26T07:30:05.808Z,12.20
2023-11-26T07:32:39.452Z,12.20
2023-11-26T07:35:10.622Z,12.20
2023-11-26T07:37:41.917Z,12.10
2023-11-26T07:40:16.796Z,12.50
2023-11-26T07:42:47.747Z,12.40
2023-11-26T07:45:18.921Z,12.40
2023-11-26T07:47:50.328Z,12.40
2023-11-26T07:50:24.233Z,12.50
2023-11-26T07:52:55.783Z,12.40
2023-11-26T07:55:28.372Z,12.60
2023-11-26T07:58:00.609Z,13.00
2023-11-26T08:00:32.273Z,12.60
2023-11-26T08:03:03.584Z,13.00
2023-11-26T08:05:38.196Z,13.00
2023-11-26T08:08:09.276Z,12.90
2023-11-26T08:10:40.257Z,13.00
2023-11-26T08:13:12.985Z,12.90
2023-11-26T08:15:44.108Z,13.00
2023-11-26T08:18:16.959Z,12.90
2023-11-26T08:20:48.284Z,13.30
2023-11-26T08:23:19.464Z,13.30
2023-11-26T08:25:54.808Z,13.10
2023-11-26T08:28:33.337Z,13.60
2023-11-26T08:31:04.392Z,13.70
2023-11-26T08:33:42.502Z,13.30
2023-11-26T08:36:17.311Z,13.50
2023-11-26T08:38:49.347Z,13.60
2023-11-26T08:41:22.807Z,13.60
2023-11-26T08:43:57.142Z,13.60
2023-11-26T08:46:28.815Z,13.30
2023-11-26T08:48:59.867Z,13.20
2023-11-26T08:51:36.538Z,13.60
2023-11-26T08:54:07.797Z,13.60
2023-11-26T08:56:39.111Z,13.60
2023-11-26T08:59:10.044Z,13.40
2023-11-26T09:01:41.838Z,13.70
2023-11-26T09:04:13.007Z,13.90
2023-11-26T09:06:44.103Z,14.10
2023-11-26T09:09:15.189Z,14.20
2023-11-26T09:11:48.380Z,12.90
2023-11-26T09:14:19.555Z,13.90
2023-11-26T09:16:51.720Z,13.50
2023-11-26T09:19:22.741Z,13.40
2023-11-26T09:21:53.764Z,13.80
2023-11-26T09:24:24.749Z,13.80
2023-11-26T09:26:55.849Z,14.20
2023-11-26T09:29:33.074Z,13.90
2023-11-26T09:32:05.016Z,13.80
2023-11-26T09:34:36.079Z,13.70
2023-11-26T09:37:07.152Z,14.00
2023-11-26T09:39:38.550Z,13.90
2023-11-26T09:42:13.795Z,13.40
2023-11-26T09:44:46.427Z,12.00
2023-11-26T09:47:19.539Z,12.70
2023-11-26T09:49:53.022Z,13.20
2023-11-26T09:52:26.352Z,13.00
2023-11-26T09:54:59.041Z,12.70
2023-11-26T09:57:31.056Z,13.00
2023-11-26T10:00:07.440Z,12.70
2023-11-26T10:02:39.203Z,12.40
2023-11-26T10:05:24.783Z,12.10
2023-11-26T10:07:56.040Z,12.50
2023-11-26T10:10:27.192Z,11.80
2023-11-26T10:13:06.029Z,12.00
2023-11-26T10:15:43.949Z,13.10
2023-11-26T10:18:16.264Z,12.80
2023-11-26T10:20:51.847Z,12.40
2023-11-26T10:23:27.037Z,13.20
2023-11-26T10:25:58.100Z,13.50
2023-11-26T10:28:29.377Z,13.10
2023-11-26T10:31:07.012Z,13.20
2023-11-26T10:33:38.040Z,13.50
2023-11-26T10:36:09.401Z,13.50
2023-11-26T10:38:40.706Z,13.70
2023-11-26T10:41:11.880Z,13.70
2023-11-26T10:43:48.990Z,13.10
2023-11-26T10:46:26.353Z,13.20
2023-11-26T10:49:14.333Z,13.40
2023-11-26T10:51:57.669Z,14.20
2023-11-26T10:54:39.948Z,13.90
2023-11-26T10:57:14.623Z,14.00
2023-11-26T10:59:50.108Z,13.90
2023-11-26T11:02:21.768Z,14.10
2023-11-26T11:04:53.015Z,13.70
2023-11-26T11:07:25.024Z,13.40
2023-11-26T11:10:37.029Z,13.80
2023-11-26T11:13:14.591Z,14.00
2023-11-26T11:15:46.747Z,14.30
2023-11-26T11:18:47.484Z,14.30
2023-11-26T11:21:19.472Z,12.90
2023-11-26T11:23:54.159Z,12.60
2023-11-26T11:26:26.582Z,12.70
2023-11-26T11:29:01.372Z,12.60
2023-11-26T11:31:52.797Z,13.10
2023-11-26T11:34:23.893Z,13.10
2023-11-26T11:36:57.229Z,13.40
2023-11-26T11:39:45.890Z,13.50
2023-11-26T11:42:23.286Z,13.00
2023-11-26T11:44:54.913Z,13.20
2023-11-26T11:47:43.477Z,13.40
2023-11-26T11:50:16.280Z,14.00
2023-11-26T11:52:55.662Z,13.80
2023-11-26T11:55:39.838Z,14.40
2023-11-26T11:58:15.047Z,13.70
2023-11-26T12:00:50.013Z,13.80
2023-11-26T12:03:24.793Z,14.20
2023-11-26T12:06:11.211Z,14.00
2023-11-26T12:08:42.161Z,14.30
2023-11-26T12:11:13.111Z,12.70
2023-11-26T12:13:44.249Z,13.90
2023-11-26T12:16:17.721Z,13.80
2023-11-26T12:18:58.688Z,13.30
2023-11-26T12:21:30.866Z,13.50
2023-11-26T12:24:01.850Z,12.50
2023-11-26T12:26:37.172Z,13.30
2023-11-26T12:29:08.209Z,13.40
2023-11-26T12:31:40.917Z,13.10
2023-11-26T12:34:12.861Z,13.50
2023-11-26T12:36:44.156Z,14.10
2023-11-26T12:39:19.748Z,13.80
2023-11-26T12:41:51.277Z,13.50
2023-11-26T12:44:23.024Z,14.60
2023-11-26T12:47:13.274Z,14.60
2023-11-26T12:50:00.401Z,14.10
2023-11-26T12:52:35.431Z,13.50
2023-11-26T12:55:08.859Z,13.20
2023-11-26T12:57:40.634Z,14.20
2023-11-26T13:00:13.995Z,14.70
2023-11-26T13:02:49.846Z,15.40
2023-11-26T13:05:30.219Z,15.50
2023-11-26T13:08:01.759Z,14.10
2023-11-26T13:10:55.869Z,13.90
2023-11-26T13:13:32.814Z,13.70
2023-11-26T13:16:05.338Z,13.70
2023-11-26T13:18:36.511Z,13.50
2023-11-26T13:21:08.064Z,13.80
2023-11-26T13:23:38.982Z,14.40
2023-11-26T13:26:11.254Z,14.40
2023-11-26T13:28:42.303Z,13.60
2023-11-26T13:31:13.805Z,14.60
2023-11-26T13:33:48.295Z,14.70
2023-11-26T13:36:19.660Z,14.50
2023-11-26T13:38:50.626Z,14.90
2023-11-26T13:41:23.701Z,14.00
2023-11-26T13:43:56.817Z,13.60
2023-11-26T13:46:31.791Z,14.00
2023-11-26T13:49:07.827Z,14.50
2023-11-26T13:51:38.917Z,14.70
2023-11-26T13:54:10.248Z,14.20
2023-11-26T13:56:43.057Z,14.70
2023-11-26T13:59:14.013Z,14.30
2023-11-26T14:01:45.831Z,13.90
2023-11-26T14:04:16.961Z,14.60
2023-11-26T14:06:48.294Z,14.60
2023-11-26T14:09:20.584Z,15.30
2023-11-26T14:11:56.062Z,15.10
2023-11-26T14:14:29.091Z,14.70
2023-11-26T14:17:00.079Z,15.00
2023-11-26T14:19:33.580Z,14.90
2023-11-26T14:22:05.544Z,14.10
2023-11-26T14:24:38.872Z,14.00
2023-11-26T14:27:09.908Z,15.20
2023-11-26T14:29:40.847Z,15.70
2023-11-26T14:32:11.861Z,15.70
2023-11-26T14:34:42.844Z,15.60
2023-11-26T14:37:13.784Z,15.20
2023-11-26T14:39:46.005Z,15.10
2023-11-26T14:42:16.977Z,15.40
2023-11-26T14:44:48.099Z,15.60
2023-11-26T14:47:19.572Z,14.60
2023-11-26T14:49:50.529Z,14.90
2023-11-26T14:52:21.444Z,14.80
2023-11-26T14:54:52.479Z,14.40
2023-11-26T14:57:23.525Z,14.50
2023-11-26T14:59:59.894Z,14.50
2023-11-26T15:02:30.998Z,14.50
2023-11-26T15:05:02.083Z,14.90
2023-11-26T15:07:33.008Z,14.40
2023-11-26T15:10:05.494Z,14.30
2023-11-26T15:12:36.588Z,14.40
2023-11-26T15:15:10.485Z,13.90
2023-11-26T15:17:42.749Z,13.70
2023-11-26T15:20:14.593Z,13.50
2023-11-26T15:22:45.723Z,14.20
2023-11-26T15:25:16.760Z,14.50
2023-11-26T15:27:47.785Z,14.90
2023-11-26T15:30:18.736Z,15.20
2023-11-26T15:32:49.773Z,15.20
2023-11-26T15:35:20.787Z,15.20
2023-11-26T15:37:53.205Z,15.10
2023-11-26T15:40:24.108Z,14.90
2023-11-26T15:42:54.997Z,15.00
2023-11-26T15:45:25.910Z,15.10
2023-11-26T15:47:56.917Z,15.00
2023-11-26T15:50:28.427Z,14.90
2023-11-26T15:53:00.432Z,14.50
2023-11-26T15:55:32.111Z,14.80
2023-11-26T15:58:03.117Z,15.10
2023-11-26T16:00:34.188Z,15.40
2023-11-26T16:03:05.149Z,15.20
2023-11-26T16:05:38.093Z,15.40
2023-11-26T16:08:09.664Z,14.80
2023-11-26T16:10:40.991Z,15.10
2023-11-26T16:13:12.138Z,15.00
2023-11-26T16:15:43.126Z,15.10
2023-11-26T16:18:14.251Z,15.20
2023-11-26T16:20:47.320Z,15.00
2023-11-26T16:23:18.253Z,14.30
2023-11-26T16:25:49.173Z,14.30
2023-11-26T16:28:20.744Z,14.20
2023-11-26T16:30:51.746Z,13.70
2023-11-26T16:33:53.545Z,13.20
2023-11-26T16:36:25.391Z,13.40
2023-11-26T16:38:56.412Z,13.00
2023-11-26T16:41:27.401Z,14.30
2023-11-26T16:43:58.411Z,14.10
2023-11-26T16:46:29.521Z,13.50
2023-11-26T16:49:03.413Z,13.70
2023-11-26T16:51:34.525Z,14.00
2023-11-26T16:54:05.640Z,13.80
2023-11-26T16:56:36.615Z,13.70
2023-11-26T16:59:07.590Z,13.50
2023-11-26T17:01:38.644Z,13.90
2023-11-26T17:04:10.097Z,13.50
2023-11-26T17:06:45.376Z,13.70
2023-11-26T17:09:17.320Z,14.20
2023-11-26T17:11:48.258Z,13.20
2023-11-26T17:14:19.220Z,13.00
2023-11-26T17:16:50.404Z,12.90
2023-11-26T17:19:21.783Z,13.20
2023-11-26T17:21:53.154Z,14.10
2023-11-26T17:24:24.119Z,14.30
2023-11-26T17:26:55.647Z,13.50
2023-11-26T17:29:26.533Z,13.50
2023-11-26T17:31:58.552Z,14.00
2023-11-26T17:34:29.518Z,13.90
2023-11-26T17:37:00.503Z,13.30
2023-11-26T17:39:31.554Z,13.80
2023-11-26T17:42:02.583Z,14.30
2023-11-26T17:44:33.472Z,13.70
2023-11-26T17:47:09.126Z,14.40
2023-11-26T17:49:44.426Z,14.10
2023-11-26T17:52:15.593Z,14.30
2023-11-26T17:54:47.202Z,13.80
2023-11-26T17:57:19.648Z,14.10
2023-11-26T17:59:50.739Z,14.30
2023-11-26T18:02:24.166Z,14.10
2023-11-26T18:04:56.170Z,14.50
2023-11-26T18:07:27.426Z,14.20
2023-11-26T18:09:59.791Z,14.20
2023-11-26T18:12:30.812Z,14.60
2023-11-26T18:15:02.182Z,14.30
2023-11-26T18:17:33.330Z,14.00
2023-11-26T18:20:04.910Z,14.30
2023-11-26T18:22:38.734Z,14.10
2023-11-26T18:25:11.251Z,13.40
2023-11-26T18:27:42.992Z,13.90
2023-11-26T18:30:14.612Z,14.40
2023-11-26T18:32:45.717Z,14.30
2023-11-26T18:35:16.661Z,14.20
2023-11-26T18:37:48.539Z,14.20
2023-11-26T18:40:19.634Z,14.10
2023-11-26T18:42:53.372Z,14.30
2023-11-26T18:45:24.433Z,14.20
2023-11-26T18:47:55.862Z,13.80
2023-11-26T18:50:26.806Z,13.80
2023-11-26T18:52:57.757Z,13.90
2023-11-26T18:55:28.691Z,13.70
2023-11-26T18:57:59.707Z,13.50
2023-11-26T19:00:30.755Z,13.70
2023-11-26T19:03:05.799Z,14.20
2023-11-26T19:05:36.993Z,14.10
2023-11-26T19:08:08.118Z,14.10
2023-11-26T19:10:41.167Z,13.60
2023-11-26T19:13:12.254Z,14.00
2023-11-26T19:15:44.052Z,13.90
2023-11-26T19:18:15.165Z,14.00
2023-11-26T19:20:46.072Z,13.90
2023-11-26T19:23:17.466Z,14.00
2023-11-26T19:25:48.394Z,14.20
2023-11-26T19:28:20.231Z,14.20
2023-11-26T19:30:51.184Z,14.10
2023-11-26T19:33:22.225Z,13.80
2023-11-26T19:35:54.412Z,14.00
2023-11-26T19:38:26.348Z,14.30
2023-11-26T19:40:57.414Z,14.50
2023-11-26T19:43:29.086Z,14.40
2023-11-26T19:46:01.448Z,14.50
2023-11-26T19:48:32.646Z,14.40
2023-11-26T19:51:09.561Z,14.60
2023-11-26T19:53:41.473Z,13.90
2023-11-26T19:56:13.140Z,14.40
2023-11-26T19:58:45.755Z,14.60
2023-11-26T20:01:18.087Z,14.50
2023-11-26T20:03:49.475Z,14.30
2023-11-26T20:06:20.607Z,14.70
2023-11-26T20:08:51.640Z,14.70
2023-11-26T20:11:24.403Z,14.60
2023-11-26T20:13:55.421Z,14.30
2023-11-26T20:16:26.541Z,14.40
2023-11-26T20:18:57.663Z,14.20
2023-11-26T20:21:31.241Z,14.30
2023-11-26T20:24:02.159Z,14.60
2023-11-26T20:26:33.183Z,14.40
2023-11-26T20:29:05.966Z,14.20
2023-11-26T20:31:37.402Z,14.40
2023-11-26T20:34:08.619Z,14.20
2023-11-26T20:36:39.728Z,14.40
2023-11-26T20:39:10.654Z,14.20
2023-11-26T20:41:41.640Z,14.30
2023-11-26T20:44:12.675Z,14.40
2023-11-26T20:46:43.866Z,14.50
2023-11-26T20:49:14.833Z,14.40
2023-11-26T20:51:45.775Z,14.90
2023-11-26T20:54:16.772Z,15.80
2023-11-26T20:56:47.833Z,16.40
2023-11-26T20:59:24.268Z,15.20
2023-11-26T21:01:56.299Z,15.50
2023-11-26T21:04:27.868Z,15.30
2023-11-26T21:06:58.969Z,15.00
2023-11-26T21:09:29.960Z,14.90
2023-11-26T21:12:01.881Z,14.40
2023-11-26T21:14:33.018Z,14.50
2023-11-26T21:17:05.162Z,14.70
2023-11-26T21:19:36.566Z,14.70
2023-11-26T21:22:09.513Z,14.60
2023-11-26T21:24:40.698Z,14.50
2023-11-26T21:27:11.740Z,14.40
2023-11-26T21:29:43.085Z,14.60
2023-11-26T21:32:16.964Z,13.90
2023-11-26T21:34:48.221Z,14.80
2023-11-26T21:37:19.274Z,14.60
2023-11-26T21:39:50.441Z,14.10
2023-11-26T21:42:21.764Z,14.30
2023-11-26T21:44:52.800Z,14.20
2023-11-26T21:47:23.985Z,14.00
2023-11-26T21:49:55.359Z,14.00
2023-11-26T21:52:26.412Z,14.00
2023-11-26T21:54:57.958Z,13.90
2023-11-26T21:58:00.046Z,14.00
2023-11-26T22:01:57.878Z,13.90
2023-11-26T22:04:53.762Z,14.20
2023-11-26T22:07:34.437Z,14.00
2023-11-26T22:18:05.239Z,13.90
2023-11-26T22:20:23.924Z,14.00
2023-11-26T22:23:43.532Z,14.20
2023-11-26T22:26:21.174Z,14.30
2023-11-26T22:33:25.972Z,14.50
2023-11-26T22:36:32.861Z,13.80
2023-11-26T22:43:09.382Z,13.60
2023-11-26T22:45:40.468Z,13.70
2023-11-26T22:48:11.406Z,13.70
2023-11-26T22:50:51.023Z,13.80
2023-11-26T22:53:23.770Z,13.90
2023-11-26T22:55:54.694Z,13.80
2023-11-26T22:58:25.624Z,13.40
2023-11-26T23:00:56.592Z,13.30
2023-11-26T23:03:36.577Z,13.30
2023-11-26T23:06:09.663Z,13.30
2023-11-26T23:08:41.230Z,13.20
2023-11-26T23:11:12.293Z,13.20
2023-11-26T23:13:43.248Z,13.20
2023-11-26T23:16:17.971Z,13.30
2023-11-26T23:18:50.474Z,13.20
2023-11-26T23:21:21.582Z,13.40
2023-11-26T23:23:53.439Z,13.50
2023-11-26T23:26:24.595Z,13.50
2023-11-26T23:28:55.526Z,13.30
2023-11-26T23:31:27.129Z,13.20
2023-11-26T23:33:58.163Z,13.30
2023-11-26T23:36:29.194Z,13.50
2023-11-26T23:39:00.234Z,13.30
2023-11-26T23:41:31.181Z,13.50
2023-11-26T23:44:02.151Z,13.40
2023-11-26T23:46:33.238Z,13.40
2023-11-26T23:49:06.486Z,13.40
2023-11-26T23:51:38.325Z,13.30
2023-11-26T23:54:10.228Z,12.80
2023-11-26T23:56:41.134Z,13.00
2023-11-26T23:59:12.150Z,12.80
